Pearl Of Scandinavia — OWFU2 — position and weather

sailwx.info

Track history (hours):
 
Tides and Currents Weather Stations Pressure Air Temp Water Temp Dewpoint Dewpoint Depression Visibility Wind Speed Wind Dir Waves Ship Positions

Pearl Of Scandinavia

Last reported at 2014-Aug-21 11:33 UTC. Time now 2014-Aug-21 12:09 UTC.
Position N 59°54' E 010°45'.

Length 176.4 m; beam 34 m; draft 6.215 m.

Type: Ship. MMSI: 219945000.

Date/timePositionNaut miles runAvg speedWind from/ knotsBaromVisibWave heightAir tempDewpointWater temp
2014-Aug-21 11:33N 59°54' E 010°45'0 0.0
2014-Aug-21 10:33N 59°54' E 010°45'0 0.0
2014-Aug-21 09:33N 59°54' E 010°45'0 0.0
2014-Aug-21 08:24N 59°54' E 010°45'1 0.8
2014-Aug-21 07:33N 59°54' E 010°43'2813.9
2014-Aug-21 05:33N 59°26' E 010°34'1716.7
2014-Aug-21 04:33N 59°10' E 010°39'1716.8
2014-Aug-21 03:33N 58°53' E 010°36'5617.1
2014-Aug-21 00:16N 57°59' E 010°59'1216.3
2014-Aug-20 23:33N 57°48' E 011°06'1616.3
2014-Aug-20 22:33N 57°33' E 011°18'1616.0
2014-Aug-20 21:34N 57°19' E 011°34'5416.3
2014-Aug-20 18:14N 56°30' E 012°15'1115.9
2014-Aug-20 17:34N 56°20' E 012°23'1616.1
2014-Aug-20 16:34N 56°06' E 012°35'1414.2
2014-Aug-20 15:34N 55°52' E 012°45'1111.4
2014-Aug-20 14:34N 55°42' E 012°36'0 0.0
2014-Aug-20 13:31N 55°42' E 012°36'0 0.0
2014-Aug-20 12:31N 55°42' E 012°36'0 0.0
2014-Aug-20 11:31N 55°42' E 012°36'0 0.0
2014-Aug-20 10:31N 55°42' E 012°36'0 0.0
2014-Aug-20 09:31N 55°42' E 012°36'0 0.0
2014-Aug-20 08:31N 55°42' E 012°36'0 0.3
2014-Aug-20 07:33N 55°42' E 012°36'1111.0
2014-Aug-20 06:33N 55°53' E 012°40'1515.1
2014-Aug-20 05:33N 56°07' E 012°31'1616.3
2014-Aug-20 04:33N 56°23' E 012°21'5116.1
2014-Aug-20 01:22N 57°12' E 011°54'1316.3
2014-Aug-20 00:33N 57°23' E 011°41'894893.5
2014-Aug-19 23:33N 57°38' E 039°24'901896.6
2014-Aug-19 22:33N 57°54' E 011°14'1616.2
2014-Aug-19 21:33N 58°10' E 011°05'3216.2
2014-Aug-19 19:33N 58°41' E 010°48'1616.4
2014-Aug-19 18:33N 58°57' E 010°43'1717.0
2014-Aug-19 17:33N 59°14' E 010°37'1717.1
2014-Aug-19 16:33N 59°31' E 010°35'2114.4
2014-Aug-19 15:06N 59°52' E 010°37'4 7.2
2014-Aug-19 14:29N 59°54' E 010°45'0 0.0
2014-Aug-19 13:29N 59°54' E 010°45'0 0.0
2014-Aug-19 12:29N 59°54' E 010°45'0 0.0
2014-Aug-19 11:32N 59°54' E 010°45'0 0.0
2014-Aug-19 10:29N 59°54' E 010°45'0 0.0
2014-Aug-19 09:32N 59°54' E 010°45'0 0.0
2014-Aug-19 08:29N 59°54' E 010°45'0 0.1
2014-Aug-19 07:33N 59°54' E 010°44'2713.1
2014-Aug-19 05:30N 59°28' E 010°34'1616.3
2014-Aug-19 04:33N 59°12' E 010°39'1716.6
2014-Aug-19 03:33N 58°56' E 010°42'5216.9
2014-Aug-19 00:30N 58°06' E 011°09'1516.5
2014-Aug-18 23:33N 57°51' E 011°16'1615.7
2014-Aug-18 22:34N 57°36' E 011°25'1616.1
2014-Aug-18 21:33N 57°21' E 011°34'2416.5
2014-Aug-18 20:05N 56°58' E 011°48'815.4
2014-Aug-18 19:33N 56°51' E 011°56'1616.2
2014-Aug-18 18:33N 56°36' E 012°10'1616.0
2014-Aug-18 17:33N 56°22' E 012°22'1616.4
2014-Aug-18 16:33N 56°07' E 012°34'1515.1
2014-Aug-18 15:33N 55°53' E 012°44'1211.7
2014-Aug-18 14:33N 55°42' E 012°36'0 0.0
2014-Aug-18 13:31N 55°42' E 012°36'0 0.0
2014-Aug-18 12:31N 55°42' E 012°36'0 0.0
2014-Aug-18 11:31N 55°42' E 012°36'0 0.0
2014-Aug-18 10:31N 55°42' E 012°36'0 0.0
2014-Aug-18 09:31N 55°42' E 012°36'0 0.0
2014-Aug-18 08:31N 55°42' E 012°36'0 0.4
2014-Aug-18 07:32N 55°42' E 012°36'1111.2
2014-Aug-18 06:34N 55°53' E 012°40'1414.1
2014-Aug-18 05:33N 56°07' E 012°32'1515.3
2014-Aug-18 04:33N 56°21' E 012°22'6616.4
2014-Aug-18 00:33N 57°23' E 011°41'9916.4
2014-Aug-17 18:33N 58°56' E 010°43'1615.7
2014-Aug-17 17:33N 59°12' E 010°38'1616.2
2014-Aug-17 16:33N 59°28' E 010°34'1813.5
2014-Aug-17 15:14N 59°46' E 010°33'1014.0
2014-Aug-17 14:32N 59°54' E 010°44'1 0.5
2014-Aug-17 13:24N 59°54' E 010°45'0 0.0
2014-Aug-17 12:24N 59°54' E 010°45'0 0.0
2014-Aug-17 11:24N 59°54' E 010°45'0 0.0
2014-Aug-17 10:27N 59°54' E 010°45'0 0.0
2014-Aug-17 09:24N 59°54' E 010°45'0 0.0
2014-Aug-17 08:27N 59°54' E 010°45'0 0.1
2014-Aug-17 07:33N 59°54' E 010°45'1412.5
2014-Aug-17 06:28N 59°41' E 010°36'1314.2
2014-Aug-17 05:33N 59°28' E 010°34'1616.6
2014-Aug-17 04:33N 59°12' E 010°39'1716.6
2014-Aug-17 03:33N 58°55' E 010°43'5316.6
2014-Aug-17 00:23N 58°04' E 011°08'1416.7
2014-Aug-16 23:33N 57°51' E 011°16'1716.8
2014-Aug-16 22:33N 57°35' E 011°25'1716.6
2014-Aug-16 21:33N 57°19' E 011°34'1716.7
2014-Aug-16 20:33N 57°03' E 011°44'1515.4
2014-Aug-16 19:33N 56°50' E 011°58'1615.4
2014-Aug-16 18:33N 56°36' E 012°11'1615.7
2014-Aug-16 17:33N 56°22' E 012°21'1615.7
2014-Aug-16 16:33N 56°07' E 012°33'1414.4
2014-Aug-16 15:34N 55°54' E 012°44'1312.9
2014-Aug-16 14:34N 55°42' E 012°36'0 0.2
2014-Aug-16 13:32N 55°42' E 012°36'0 0.0
2014-Aug-16 12:32N 55°42' E 012°36'0 0.0
2014-Aug-16 11:32N 55°42' E 012°36'0 0.0
2014-Aug-16 10:32N 55°42' E 012°36'0 0.0
2014-Aug-16 09:32N 55°42' E 012°36'0 0.0
2014-Aug-16 08:32N 55°42' E 012°36'0 0.3
2014-Aug-16 07:33N 55°42' E 012°36'1111.3
2014-Aug-16 06:33N 55°53' E 012°40'1514.9
2014-Aug-16 05:34N 56°07' E 012°31'1615.7
2014-Aug-16 04:33N 56°22' E 012°21'5416.6
2014-Aug-16 01:17N 57°14' E 011°53'1217.2
2014-Aug-16 00:33N 57°24' E 011°39'1717.2
2014-Aug-15 23:33N 57°39' E 011°23'1716.6
2014-Aug-15 22:33N 57°55' E 011°14'1616.4
2014-Aug-15 21:33N 58°11' E 011°05'1615.4
2014-Aug-15 20:29N 58°26' E 010°56'3015.4
2014-Aug-15 18:33N 58°55' E 010°43'1616.3
2014-Aug-15 17:33N 59°11' E 010°38'1616.4
2014-Aug-15 16:33N 59°28' E 010°34'1814.6
2014-Aug-15 15:19N 59°46' E 010°33'1013.3
2014-Aug-15 14:34N 59°54' E 010°45'0 0.1
2014-Aug-15 13:18N 59°54' E 010°45'0 0.0
2014-Aug-15 12:33N 59°54' E 010°45'0 0.0
2014-Aug-15 11:33N 59°54' E 010°45'0 0.0
2014-Aug-15 10:21N 59°54' E 010°45'0 0.0
2014-Aug-15 09:27N 59°54' E 010°45'0 0.0
2014-Aug-15 08:27N 59°54' E 010°45'0 0.2
2014-Aug-15 07:33N 59°54' E 010°45'2612.7
2014-Aug-15 05:30N 59°28' E 010°34'1414.9
2014-Aug-15 04:34N 59°14' E 010°38'1515.3
2014-Aug-15 03:34N 58°59' E 010°42'5417.2
2014-Aug-15 00:26N 58°07' E 011°06'1517.3
2014-Aug-14 23:33N 57°53' E 011°15'1616.5
2014-Aug-14 22:33N 57°37' E 011°24'1616.2
2014-Aug-14 21:33N 57°21' E 011°33'1616.2
2014-Aug-14 20:33N 57°06' E 011°43'1615.8
2014-Aug-14 19:33N 56°52' E 011°54'1615.6
2014-Aug-14 18:33N 56°38' E 012°08'1616.3
2014-Aug-14 17:33N 56°23' E 012°20'1716.6
2014-Aug-14 16:33N 56°08' E 012°32'1515.4
2014-Aug-14 15:33N 55°54' E 012°44'1312.9
2014-Aug-14 14:33N 55°42' E 012°36'0 0.0
2014-Aug-14 13:32N 55°42' E 012°36'0 0.0
2014-Aug-14 12:32N 55°42' E 012°36'0 0.0
2014-Aug-14 11:32N 55°42' E 012°36'0 0.0
2014-Aug-14 10:32N 55°42' E 012°36'0 0.0
2014-Aug-14 09:32N 55°42' E 012°36'0 0.0
2014-Aug-14 08:32N 55°42' E 012°36'0 0.3
2014-Aug-14 07:33N 55°42' E 012°36'1212.3
2014-Aug-14 06:33N 55°54' E 012°39'1515.2
2014-Aug-14 05:33N 56°09' E 012°29'1616.2
2014-Aug-14 04:33N 56°24' E 012°21'1716.8
2014-Aug-14 03:33N 56°41' E 012°14'1716.9
2014-Aug-14 02:33N 56°57' E 012°06'1717.1
2014-Aug-14 01:33N 57°13' E 011°53'1717.3
2014-Aug-14 00:33N 57°27' E 011°35'1818.0
2014-Aug-13 23:33N 57°43' E 011°21'1716.9
2014-Aug-13 22:33N 57°59' E 011°10'6215.5
2014-Aug-13 18:33N 58°59' E 010°41'1413.7
2014-Aug-13 17:34N 59°13' E 010°37'1817.9
2014-Aug-13 16:33N 59°31' E 010°35'2412.0
2014-Aug-13 14:33N 59°54' E 010°45'0 0.0
2014-Aug-13 13:28N 59°54' E 010°45'0 0.0
2014-Aug-13 12:28N 59°54' E 010°45'0 0.0
2014-Aug-13 11:13N 59°54' E 010°45'0 0.0
2014-Aug-13 10:31N 59°54' E 010°45'0 0.0
2014-Aug-13 09:28N 59°54' E 010°45'0 0.0
2014-Aug-13 08:31N 59°54' E 010°45'0 0.2
2014-Aug-13 07:32N 59°54' E 010°45'2613.2
2014-Aug-13 05:33N 59°28' E 010°34'1615.9
2014-Aug-13 04:33N 59°13' E 010°38'1616.3
2014-Aug-13 03:33N 58°57' E 010°43'7117.5
2014-Aug-12 23:30N 57°48' E 011°19'1516.2
2014-Aug-12 22:34N 57°33' E 011°26'3916.4
2014-Aug-12 20:11N 56°56' E 011°49'1015.7
2014-Aug-12 19:34N 56°49' E 012°00'1616.0
2014-Aug-12 18:33N 56°34' E 012°12'1616.0
2014-Aug-12 17:33N 56°19' E 012°23'1615.6
2014-Aug-12 16:34N 56°05' E 012°36'1515.4
2014-Aug-12 15:34N 55°51' E 012°44'10 9.8
2014-Aug-12 14:33N 55°42' E 012°36'0 0.0
2014-Aug-12 13:31N 55°42' E 012°36'0 0.0
2014-Aug-12 12:31N 55°42' E 012°36'0 0.0
2014-Aug-12 11:31N 55°42' E 012°36'0 0.0
2014-Aug-12 10:31N 55°42' E 012°36'0 0.0
2014-Aug-12 09:31N 55°42' E 012°36'7 7.8
2014-Aug-12 08:33N 55°49' E 012°42'1716.5
2014-Aug-12 07:33N 56°05' E 012°35'1818.2
2014-Aug-12 06:33N 56°21' E 012°21'1918.6
2014-Aug-12 05:33N 56°39' E 012°13'1918.8
2014-Aug-12 04:33N 56°58' E 012°04'1918.9
2014-Aug-12 03:33N 57°15' E 011°50'1919.1
2014-Aug-12 02:33N 57°30' E 011°28'1918.8
2014-Aug-12 01:33N 57°45' E 011°06'1817.6
2014-Aug-12 00:33N 58°01' E 010°51'4914.6
2014-Aug-11 21:12N 58°49' E 010°38'812.9
2014-Aug-11 20:33N 58°57' E 010°37'1010.5
2014-Aug-11 19:33N 59°08' E 010°37'9 9.3
2014-Aug-11 18:33N 59°17' E 010°36'1010.0
2014-Aug-11 17:33N 59°27' E 010°33'28 9.3
2014-Aug-11 14:33N 59°54' E 010°45'0 0.0
2014-Aug-11 13:23N 59°54' E 010°45'0 0.0
2014-Aug-11 12:23N 59°54' E 010°45'  
Track history (hours):
 
Tides and Currents Weather Stations Pressure Air Temp Water Temp Dewpoint Dewpoint Depression Visibility Wind Speed Wind Dir Waves Ship Positions

Pearl Of Scandinavia

Last reported at 2014-Aug-21 11:33 UTC. Time now 2014-Aug-21 12:09 UTC.
Position N 59°54' E 010°45'.

Length 176.4 m; beam 34 m; draft 6.215 m.

Type: Ship. MMSI: 219945000.

Date/timePositionNaut miles runAvg speedWind from/ knotsBaromVisibWave heightAir tempDewpointWater temp
2014-Aug-21 11:33N 59°54' E 010°45'0 0.0
2014-Aug-21 10:33N 59°54' E 010°45'0 0.0
2014-Aug-21 09:33N 59°54' E 010°45'0 0.0
2014-Aug-21 08:24N 59°54' E 010°45'1 0.8
2014-Aug-21 07:33N 59°54' E 010°43'2813.9
2014-Aug-21 05:33N 59°26' E 010°34'1716.7
2014-Aug-21 04:33N 59°10' E 010°39'1716.8
2014-Aug-21 03:33N 58°53' E 010°36'5617.1
2014-Aug-21 00:16N 57°59' E 010°59'1216.3
2014-Aug-20 23:33N 57°48' E 011°06'1616.3
2014-Aug-20 22:33N 57°33' E 011°18'1616.0
2014-Aug-20 21:34N 57°19' E 011°34'5416.3
2014-Aug-20 18:14N 56°30' E 012°15'1115.9
2014-Aug-20 17:34N 56°20' E 012°23'1616.1
2014-Aug-20 16:34N 56°06' E 012°35'1414.2
2014-Aug-20 15:34N 55°52' E 012°45'1111.4
2014-Aug-20 14:34N 55°42' E 012°36'0 0.0
2014-Aug-20 13:31N 55°42' E 012°36'0 0.0
2014-Aug-20 12:31N 55°42' E 012°36'0 0.0
2014-Aug-20 11:31N 55°42' E 012°36'0 0.0
2014-Aug-20 10:31N 55°42' E 012°36'0 0.0
2014-Aug-20 09:31N 55°42' E 012°36'0 0.0
2014-Aug-20 08:31N 55°42' E 012°36'0 0.3
2014-Aug-20 07:33N 55°42' E 012°36'1111.0
2014-Aug-20 06:33N 55°53' E 012°40'1515.1
2014-Aug-20 05:33N 56°07' E 012°31'1616.3
2014-Aug-20 04:33N 56°23' E 012°21'5116.1
2014-Aug-20 01:22N 57°12' E 011°54'1316.3
2014-Aug-20 00:33N 57°23' E 011°41'894893.5
2014-Aug-19 23:33N 57°38' E 039°24'901896.6
2014-Aug-19 22:33N 57°54' E 011°14'1616.2
2014-Aug-19 21:33N 58°10' E 011°05'3216.2
2014-Aug-19 19:33N 58°41' E 010°48'1616.4
2014-Aug-19 18:33N 58°57' E 010°43'1717.0
2014-Aug-19 17:33N 59°14' E 010°37'1717.1
2014-Aug-19 16:33N 59°31' E 010°35'2114.4
2014-Aug-19 15:06N 59°52' E 010°37'4 7.2
2014-Aug-19 14:29N 59°54' E 010°45'0 0.0
2014-Aug-19 13:29N 59°54' E 010°45'0 0.0
2014-Aug-19 12:29N 59°54' E 010°45'0 0.0
2014-Aug-19 11:32N 59°54' E 010°45'0 0.0
2014-Aug-19 10:29N 59°54' E 010°45'0 0.0
2014-Aug-19 09:32N 59°54' E 010°45'0 0.0
2014-Aug-19 08:29N 59°54' E 010°45'0 0.1
2014-Aug-19 07:33N 59°54' E 010°44'2713.1
2014-Aug-19 05:30N 59°28' E 010°34'1616.3
2014-Aug-19 04:33N 59°12' E 010°39'1716.6
2014-Aug-19 03:33N 58°56' E 010°42'5216.9
2014-Aug-19 00:30N 58°06' E 011°09'1516.5
2014-Aug-18 23:33N 57°51' E 011°16'1615.7
2014-Aug-18 22:34N 57°36' E 011°25'1616.1
2014-Aug-18 21:33N 57°21' E 011°34'2416.5
2014-Aug-18 20:05N 56°58' E 011°48'815.4
2014-Aug-18 19:33N 56°51' E 011°56'1616.2
2014-Aug-18 18:33N 56°36' E 012°10'1616.0
2014-Aug-18 17:33N 56°22' E 012°22'1616.4
2014-Aug-18 16:33N 56°07' E 012°34'1515.1
2014-Aug-18 15:33N 55°53' E 012°44'1211.7
2014-Aug-18 14:33N 55°42' E 012°36'0 0.0
2014-Aug-18 13:31N 55°42' E 012°36'0 0.0
2014-Aug-18 12:31N 55°42' E 012°36'0 0.0
2014-Aug-18 11:31N 55°42' E 012°36'0 0.0
2014-Aug-18 10:31N 55°42' E 012°36'0 0.0
2014-Aug-18 09:31N 55°42' E 012°36'0 0.0
2014-Aug-18 08:31N 55°42' E 012°36'0 0.4
2014-Aug-18 07:32N 55°42' E 012°36'1111.2
2014-Aug-18 06:34N 55°53' E 012°40'1414.1
2014-Aug-18 05:33N 56°07' E 012°32'1515.3
2014-Aug-18 04:33N 56°21' E 012°22'6616.4
2014-Aug-18 00:33N 57°23' E 011°41'9916.4
2014-Aug-17 18:33N 58°56' E 010°43'1615.7
2014-Aug-17 17:33N 59°12' E 010°38'1616.2
2014-Aug-17 16:33N 59°28' E 010°34'1813.5
2014-Aug-17 15:14N 59°46' E 010°33'1014.0
2014-Aug-17 14:32N 59°54' E 010°44'1 0.5
2014-Aug-17 13:24N 59°54' E 010°45'0 0.0
2014-Aug-17 12:24N 59°54' E 010°45'0 0.0
2014-Aug-17 11:24N 59°54' E 010°45'0 0.0
2014-Aug-17 10:27N 59°54' E 010°45'0 0.0
2014-Aug-17 09:24N 59°54' E 010°45'0 0.0
2014-Aug-17 08:27N 59°54' E 010°45'0 0.1
2014-Aug-17 07:33N 59°54' E 010°45'1412.5
2014-Aug-17 06:28N 59°41' E 010°36'1314.2
2014-Aug-17 05:33N 59°28' E 010°34'1616.6
2014-Aug-17 04:33N 59°12' E 010°39'1716.6
2014-Aug-17 03:33N 58°55' E 010°43'5316.6
2014-Aug-17 00:23N 58°04' E 011°08'1416.7
2014-Aug-16 23:33N 57°51' E 011°16'1716.8
2014-Aug-16 22:33N 57°35' E 011°25'1716.6
2014-Aug-16 21:33N 57°19' E 011°34'1716.7
2014-Aug-16 20:33N 57°03' E 011°44'1515.4
2014-Aug-16 19:33N 56°50' E 011°58'1615.4
2014-Aug-16 18:33N 56°36' E 012°11'1615.7
2014-Aug-16 17:33N 56°22' E 012°21'1615.7
2014-Aug-16 16:33N 56°07' E 012°33'1414.4
2014-Aug-16 15:34N 55°54' E 012°44'1312.9
2014-Aug-16 14:34N 55°42' E 012°36'0 0.2
2014-Aug-16 13:32N 55°42' E 012°36'0 0.0
2014-Aug-16 12:32N 55°42' E 012°36'0 0.0
2014-Aug-16 11:32N 55°42' E 012°36'0 0.0
2014-Aug-16 10:32N 55°42' E 012°36'0 0.0
2014-Aug-16 09:32N 55°42' E 012°36'0 0.0
2014-Aug-16 08:32N 55°42' E 012°36'0 0.3
2014-Aug-16 07:33N 55°42' E 012°36'1111.3
2014-Aug-16 06:33N 55°53' E 012°40'1514.9
2014-Aug-16 05:34N 56°07' E 012°31'1615.7
2014-Aug-16 04:33N 56°22' E 012°21'5416.6
2014-Aug-16 01:17N 57°14' E 011°53'1217.2
2014-Aug-16 00:33N 57°24' E 011°39'1717.2
2014-Aug-15 23:33N 57°39' E 011°23'1716.6
2014-Aug-15 22:33N 57°55' E 011°14'1616.4
2014-Aug-15 21:33N 58°11' E 011°05'1615.4
2014-Aug-15 20:29N 58°26' E 010°56'3015.4
2014-Aug-15 18:33N 58°55' E 010°43'1616.3
2014-Aug-15 17:33N 59°11' E 010°38'1616.4
2014-Aug-15 16:33N 59°28' E 010°34'1814.6
2014-Aug-15 15:19N 59°46' E 010°33'1013.3
2014-Aug-15 14:34N 59°54' E 010°45'0 0.1
2014-Aug-15 13:18N 59°54' E 010°45'0 0.0
2014-Aug-15 12:33N 59°54' E 010°45'0 0.0
2014-Aug-15 11:33N 59°54' E 010°45'0 0.0
2014-Aug-15 10:21N 59°54' E 010°45'0 0.0
2014-Aug-15 09:27N 59°54' E 010°45'0 0.0
2014-Aug-15 08:27N 59°54' E 010°45'0 0.2
2014-Aug-15 07:33N 59°54' E 010°45'2612.7
2014-Aug-15 05:30N 59°28' E 010°34'1414.9
2014-Aug-15 04:34N 59°14' E 010°38'1515.3
2014-Aug-15 03:34N 58°59' E 010°42'5417.2
2014-Aug-15 00:26N 58°07' E 011°06'1517.3
2014-Aug-14 23:33N 57°53' E 011°15'1616.5
2014-Aug-14 22:33N 57°37' E 011°24'1616.2
2014-Aug-14 21:33N 57°21' E 011°33'1616.2
2014-Aug-14 20:33N 57°06' E 011°43'1615.8
2014-Aug-14 19:33N 56°52' E 011°54'1615.6
2014-Aug-14 18:33N 56°38' E 012°08'1616.3
2014-Aug-14 17:33N 56°23' E 012°20'1716.6
2014-Aug-14 16:33N 56°08' E 012°32'1515.4
2014-Aug-14 15:33N 55°54' E 012°44'1312.9
2014-Aug-14 14:33N 55°42' E 012°36'0 0.0
2014-Aug-14 13:32N 55°42' E 012°36'0 0.0
2014-Aug-14 12:32N 55°42' E 012°36'0 0.0
2014-Aug-14 11:32N 55°42' E 012°36'0 0.0
2014-Aug-14 10:32N 55°42' E 012°36'0 0.0
2014-Aug-14 09:32N 55°42' E 012°36'0 0.0
2014-Aug-14 08:32N 55°42' E 012°36'0 0.3
2014-Aug-14 07:33N 55°42' E 012°36'1212.3
2014-Aug-14 06:33N 55°54' E 012°39'1515.2
2014-Aug-14 05:33N 56°09' E 012°29'1616.2
2014-Aug-14 04:33N 56°24' E 012°21'1716.8
2014-Aug-14 03:33N 56°41' E 012°14'1716.9
2014-Aug-14 02:33N 56°57' E 012°06'1717.1
2014-Aug-14 01:33N 57°13' E 011°53'1717.3
2014-Aug-14 00:33N 57°27' E 011°35'1818.0
2014-Aug-13 23:33N 57°43' E 011°21'1716.9
2014-Aug-13 22:33N 57°59' E 011°10'6215.5
2014-Aug-13 18:33N 58°59' E 010°41'1413.7
2014-Aug-13 17:34N 59°13' E 010°37'1817.9
2014-Aug-13 16:33N 59°31' E 010°35'2412.0
2014-Aug-13 14:33N 59°54' E 010°45'0 0.0
2014-Aug-13 13:28N 59°54' E 010°45'0 0.0
2014-Aug-13 12:28N 59°54' E 010°45'0 0.0
2014-Aug-13 11:13N 59°54' E 010°45'0 0.0
2014-Aug-13 10:31N 59°54' E 010°45'0 0.0
2014-Aug-13 09:28N 59°54' E 010°45'0 0.0
2014-Aug-13 08:31N 59°54' E 010°45'0 0.2
2014-Aug-13 07:32N 59°54' E 010°45'2613.2
2014-Aug-13 05:33N 59°28' E 010°34'1615.9
2014-Aug-13 04:33N 59°13' E 010°38'1616.3
2014-Aug-13 03:33N 58°57' E 010°43'7117.5
2014-Aug-12 23:30N 57°48' E 011°19'1516.2
2014-Aug-12 22:34N 57°33' E 011°26'3916.4
2014-Aug-12 20:11N 56°56' E 011°49'1015.7
2014-Aug-12 19:34N 56°49' E 012°00'1616.0
2014-Aug-12 18:33N 56°34' E 012°12'1616.0
2014-Aug-12 17:33N 56°19' E 012°23'1615.6
2014-Aug-12 16:34N 56°05' E 012°36'1515.4
2014-Aug-12 15:34N 55°51' E 012°44'10 9.8
2014-Aug-12 14:33N 55°42' E 012°36'0 0.0
2014-Aug-12 13:31N 55°42' E 012°36'0 0.0
2014-Aug-12 12:31N 55°42' E 012°36'0 0.0
2014-Aug-12 11:31N 55°42' E 012°36'0 0.0
2014-Aug-12 10:31N 55°42' E 012°36'0 0.0
2014-Aug-12 09:31N 55°42' E 012°36'7 7.8
2014-Aug-12 08:33N 55°49' E 012°42'1716.5
2014-Aug-12 07:33N 56°05' E 012°35'1818.2
2014-Aug-12 06:33N 56°21' E 012°21'1918.6
2014-Aug-12 05:33N 56°39' E 012°13'1918.8
2014-Aug-12 04:33N 56°58' E 012°04'1918.9
2014-Aug-12 03:33N 57°15' E 011°50'1919.1
2014-Aug-12 02:33N 57°30' E 011°28'1918.8
2014-Aug-12 01:33N 57°45' E 011°06'1817.6
2014-Aug-12 00:33N 58°01' E 010°51'4914.6
2014-Aug-11 21:12N 58°49' E 010°38'812.9
2014-Aug-11 20:33N 58°57' E 010°37'1010.5
2014-Aug-11 19:33N 59°08' E 010°37'9 9.3
2014-Aug-11 18:33N 59°17' E 010°36'1010.0
2014-Aug-11 17:33N 59°27' E 010°33'28 9.3
2014-Aug-11 14:33N 59°54' E 010°45'0 0.0
2014-Aug-11 13:23N 59°54' E 010°45'0 0.0
2014-Aug-11 12:23N 59°54' E 010°45'  

Dump ship's entire track history